• Join FlightAware (Why Join?)
  • Login
  • US Flag 
Trick or treat! (Boo!!) 
02:38AM EDT


 

Airport Tracker/Info


-or-


 

Live Flight TrackerFlight Track Log ✈ UCA4838 ✈ 09-May-2013 ✈ KALB - KEWR

Flight Track Log - Related Links

Times and Time Zones

All times are in EDT time to prevent confusion due to time zone crossing. See the UCA4838 flight status page for this flight to view local times or setup timezone preferences in your user account.

Time Position Orientation Groundspeed Altitude Reporting Facility
EDT Latitude Longitude Course Direction KTS MPH feet Rate Location/Type
09:41AM 42.7339 -73.8053 207° Southwest 128 147 1,000  Level Boston Center
09:42AM 42.6942 -73.8328 207° Southwest 176 203 1,900 1,140 Climbing Boston Center
09:43AM 42.6500 -73.8628 207° Southwest 181 208 3,500 1,440 Climbing Boston Center
09:44AM 42.6058 -73.8983 211° Southwest 174 200 4,900 1,380 Climbing Boston Center
09:45AM 42.5636 -73.9314 210° Southwest 181 208 6,400 1,380 Climbing Boston Center
09:46AM 42.5194 -73.9642 209° Southwest 177 204 7,700 1,200 Climbing Boston Center
09:47AM 42.4772 -74.0025 214° Southwest 181 208 8,900 960 Climbing Boston Center
09:48AM 42.4308 -74.0378 209° Southwest 195 224 9,700 660 Climbing Boston Center
09:49AM 42.4097 -74.0486 201° Southwest 204 235 9,900 240 Climbing Boston Center
09:49AM 42.3761 -74.0758 211° Southwest 218 251 10,000 -240 Climbing Boston Center
09:50AM 42.3214 -74.1192 210° Southwest 238 274 9,600 -660 Descending Boston Center
09:51AM 42.2603 -74.1653 209° Southwest 273 314 8,700 -840 Descending Boston Center
09:52AM 42.1906 -74.2167 209° Southwest 273 314 7,900 -360 Descending Boston Center
09:53AM 42.1336 -74.2569 208° Southwest 268 308 8,000  Climbing Boston Center
09:54AM 42.0683 -74.3056 209° Southwest 255 293 8,000  Level Boston Center
09:55AM 42.0133 -74.3431 207° Southwest 249 287 8,000  Level Boston Center
09:56AM 41.9419 -74.3772 200° South 249 287 8,100  Climbing Boston Center
09:57AM 41.8831 -74.4033 198° South 249 287 8,100  Level Boston Center
09:58AM 41.8119 -74.4317 197° South 249 287 8,100  Level Boston Center
09:59AM 41.7531 -74.4547 196° South 249 287 8,100 -60 Level Boston Center
10:00AM 41.6797 -74.4831 196° South 249 287 8,000 -540 Descending Boston Center
10:01AM 41.6186 -74.5089 198° South 249 287 7,100 -960 Descending Boston Center
10:02AM 41.5431 -74.5397 197° South 255 293 6,100 420 Descending Boston Center
10:03AM 41.4842 -74.5628 196° South 255 293 8,000 -60 Climbing Boston Center
10:05AM 41.3500 -74.6000 192° South 241 277 6,000 -660 Descending New York TRACON
10:06AM 41.2833 -74.5667 159° South 243 280 6,000  Level New York TRACON
10:07AM 41.2167 -74.5500 169° South 243 280 6,000  Level New York TRACON
10:08AM 41.1500 -74.5333 169° South 243 280 6,000  Level New York TRACON
10:09AM 41.0833 -74.5000 159° South 239 275 6,000  Level New York TRACON
10:10AM 41.0167 -74.5167 191° South 248 285 6,000  Level New York TRACON
10:11AM 40.9500 -74.5333 191° South 244 281 6,000 -240 Level New York TRACON
10:12AM 40.8833 -74.5667 201° Southwest 247 284 5,600 -540 Descending New York TRACON
10:13AM 40.8167 -74.5500 169° South 255 293 5,000 -360 Descending New York TRACON
10:14AM 40.7667 -74.5333 166° South 242 278 5,000  Level New York TRACON
10:15AM 40.7000 -74.5000 159° South 237 273 5,000  Level New York TRACON
10:16AM 40.6333 -74.4500 150° Southeast 244 281 5,000 -300 Level New York TRACON
10:17AM 40.5833 -74.4000 143° Southeast 249 287 4,500 -900 Descending New York TRACON
10:18AM 40.5500 -74.3167 118° Southeast 253 291 3,200 -1,260 Descending New York TRACON
10:19AM 40.5667 -74.2500 72° East 207 238 2,200 -780 Descending New York TRACON
10:20AM 40.6000 -74.2333 21° North 148 170 1,800 -600 Descending New York TRACON
10:21AM 40.6333 -74.2000 37° Northeast 132 152 1,100 -720 Descending New York TRACON
10:22AM 40.6667 -74.1833 21° North 122 140 400 -720 Descending New York TRACON
10:24AM 40.6833 -74.1667 31° Northeast  Level FlightAware Approximate
10:31AM 40.6925 -74.1687 31° Northeast  Level Estimated